sensor_id;sensor_type;location;lat;lon;timestamp;temperature;humidity
22635;DHT22;11484;50.858;4.384;2023-07-09T00:01:51;26.60;99.90
22635;DHT22;11484;50.858;4.384;2023-07-09T00:04:17;26.60;99.90
22635;DHT22;11484;50.858;4.384;2023-07-09T00:06:43;26.60;99.90
22635;DHT22;11484;50.858;4.384;2023-07-09T00:09:18;26.60;99.90
22635;DHT22;11484;50.858;4.384;2023-07-09T00:11:45;26.60;99.90
22635;DHT22;11484;50.858;4.384;2023-07-09T00:14:13;26.60;99.90
22635;DHT22;11484;50.858;4.384;2023-07-09T00:16:40;26.60;99.90
22635;DHT22;11484;50.858;4.384;2023-07-09T00:19:18;26.50;99.90
22635;DHT22;11484;50.858;4.384;2023-07-09T00:21:45;26.50;99.90
22635;DHT22;11484;50.858;4.384;2023-07-09T00:24:12;26.40;99.90
22635;DHT22;11484;50.858;4.384;2023-07-09T00:26:38;26.40;99.90
22635;DHT22;11484;50.858;4.384;2023-07-09T00:29:12;26.40;99.90
22635;DHT22;11484;50.858;4.384;2023-07-09T00:31:39;26.50;99.90
22635;DHT22;11484;50.858;4.384;2023-07-09T00:34:08;26.50;99.90
22635;DHT22;11484;50.858;4.384;2023-07-09T00:36:34;26.50;99.90
22635;DHT22;11484;50.858;4.384;2023-07-09T00:39:00;26.50;99.90
22635;DHT22;11484;50.858;4.384;2023-07-09T00:41:33;26.40;99.90
22635;DHT22;11484;50.858;4.384;2023-07-09T00:49:25;26.30;99.90
22635;DHT22;11484;50.858;4.384;2023-07-09T00:51:52;26.30;99.90
22635;DHT22;11484;50.858;4.384;2023-07-09T00:56:48;26.30;99.90
22635;DHT22;11484;50.858;4.384;2023-07-09T00:59:19;26.20;99.90
22635;DHT22;11484;50.858;4.384;2023-07-09T01:01:46;26.20;99.90
22635;DHT22;11484;50.858;4.384;2023-07-09T01:04:16;26.20;99.90
22635;DHT22;11484;50.858;4.384;2023-07-09T01:06:51;26.20;99.90
22635;DHT22;11484;50.858;4.384;2023-07-09T01:09:18;26.10;99.90
22635;DHT22;11484;50.858;4.384;2023-07-09T01:11:44;26.10;99.90
22635;DHT22;11484;50.858;4.384;2023-07-09T01:14:12;26.10;99.90
22635;DHT22;11484;50.858;4.384;2023-07-09T01:16:42;26.10;99.90
22635;DHT22;11484;50.858;4.384;2023-07-09T01:19:09;26.10;99.90
22635;DHT22;11484;50.858;4.384;2023-07-09T01:21:35;26.10;99.90
22635;DHT22;11484;50.858;4.384;2023-07-09T01:24:12;26.10;99.90
22635;DHT22;11484;50.858;4.384;2023-07-09T01:26:40;26.10;99.90
22635;DHT22;11484;50.858;4.384;2023-07-09T01:29:05;26.10;99.90
22635;DHT22;11484;50.858;4.384;2023-07-09T01:31:31;26.00;99.90
22635;DHT22;11484;50.858;4.384;2023-07-09T01:33:57;26.10;99.90
22635;DHT22;11484;50.858;4.384;2023-07-09T01:36:24;26.00;99.90
22635;DHT22;11484;50.858;4.384;2023-07-09T01:38:51;26.00;99.90
22635;DHT22;11484;50.858;4.384;2023-07-09T01:41:18;25.80;99.90
22635;DHT22;11484;50.858;4.384;2023-07-09T01:43:45;25.70;99.90
22635;DHT22;11484;50.858;4.384;2023-07-09T01:46:12;25.70;99.90
22635;DHT22;11484;50.858;4.384;2023-07-09T01:48:39;25.70;99.90
22635;DHT22;11484;50.858;4.384;2023-07-09T01:51:12;25.80;99.90
22635;DHT22;11484;50.858;4.384;2023-07-09T01:53:40;25.80;99.90
22635;DHT22;11484;50.858;4.384;2023-07-09T01:56:06;25.80;99.90
22635;DHT22;11484;50.858;4.384;2023-07-09T01:58:36;25.80;99.90
22635;DHT22;11484;50.858;4.384;2023-07-09T02:01:02;25.80;99.90
22635;DHT22;11484;50.858;4.384;2023-07-09T02:03:27;25.90;99.90
22635;DHT22;11484;50.858;4.384;2023-07-09T02:05:54;25.90;99.90
22635;DHT22;11484;50.858;4.384;2023-07-09T02:08:21;26.00;99.90
22635;DHT22;11484;50.858;4.384;2023-07-09T02:10:50;26.00;99.90
22635;DHT22;11484;50.858;4.384;2023-07-09T02:13:16;26.00;99.90
22635;DHT22;11484;50.858;4.384;2023-07-09T02:15:44;25.90;99.90
22635;DHT22;11484;50.858;4.384;2023-07-09T02:18:11;26.00;99.90
22635;DHT22;11484;50.858;4.384;2023-07-09T02:20:37;26.00;99.90
22635;DHT22;11484;50.858;4.384;2023-07-09T02:23:03;26.00;99.90
22635;DHT22;11484;50.858;4.384;2023-07-09T02:25:29;26.00;99.90
22635;DHT22;11484;50.858;4.384;2023-07-09T02:27:54;25.90;99.90
22635;DHT22;11484;50.858;4.384;2023-07-09T02:30:20;26.00;99.90
22635;DHT22;11484;50.858;4.384;2023-07-09T02:32:46;26.00;99.90
22635;DHT22;11484;50.858;4.384;2023-07-09T02:35:13;25.90;99.90
22635;DHT22;11484;50.858;4.384;2023-07-09T02:37:38;25.90;99.90
22635;DHT22;11484;50.858;4.384;2023-07-09T02:40:05;25.80;99.90
22635;DHT22;11484;50.858;4.384;2023-07-09T02:42:30;25.70;99.90
22635;DHT22;11484;50.858;4.384;2023-07-09T02:44:56;25.70;99.90
22635;DHT22;11484;50.858;4.384;2023-07-09T02:47:22;25.60;99.90
22635;DHT22;11484;50.858;4.384;2023-07-09T02:49:47;25.60;99.90
22635;DHT22;11484;50.858;4.384;2023-07-09T02:52:13;25.50;99.90
22635;DHT22;11484;50.858;4.384;2023-07-09T02:54:39;25.50;99.90
22635;DHT22;11484;50.858;4.384;2023-07-09T02:57:05;25.50;99.90
22635;DHT22;11484;50.858;4.384;2023-07-09T02:59:31;25.40;99.90
22635;DHT22;11484;50.858;4.384;2023-07-09T03:01:59;25.40;99.90
22635;DHT22;11484;50.858;4.384;2023-07-09T03:04:25;25.50;99.90
22635;DHT22;11484;50.858;4.384;2023-07-09T03:06:51;25.50;99.90
22635;DHT22;11484;50.858;4.384;2023-07-09T03:09:18;25.40;99.90
22635;DHT22;11484;50.858;4.384;2023-07-09T03:11:44;25.40;99.90
22635;DHT22;11484;50.858;4.384;2023-07-09T03:14:10;25.40;99.90
22635;DHT22;11484;50.858;4.384;2023-07-09T03:16:36;25.40;99.90
22635;DHT22;11484;50.858;4.384;2023-07-09T03:19:02;25.40;99.90
22635;DHT22;11484;50.858;4.384;2023-07-09T03:21:29;25.40;99.90
22635;DHT22;11484;50.858;4.384;2023-07-09T03:23:55;25.30;99.90
22635;DHT22;11484;50.858;4.384;2023-07-09T03:26:21;25.30;99.90
22635;DHT22;11484;50.858;4.384;2023-07-09T03:28:47;25.40;99.90
22635;DHT22;11484;50.858;4.384;2023-07-09T03:31:13;25.40;99.90
22635;DHT22;11484;50.858;4.384;2023-07-09T03:33:38;25.30;99.90
22635;DHT22;11484;50.858;4.384;2023-07-09T03:36:05;25.20;99.90
22635;DHT22;11484;50.858;4.384;2023-07-09T03:38:32;25.20;99.90
22635;DHT22;11484;50.858;4.384;2023-07-09T03:40:57;25.20;99.90
22635;DHT22;11484;50.858;4.384;2023-07-09T03:43:24;25.30;99.90
22635;DHT22;11484;50.858;4.384;2023-07-09T03:45:50;25.30;99.90
22635;DHT22;11484;50.858;4.384;2023-07-09T03:48:18;25.20;99.90
22635;DHT22;11484;50.858;4.384;2023-07-09T03:50:45;25.20;99.90
22635;DHT22;11484;50.858;4.384;2023-07-09T03:53:12;25.20;99.90
22635;DHT22;11484;50.858;4.384;2023-07-09T03:55:38;25.20;99.90
22635;DHT22;11484;50.858;4.384;2023-07-09T03:58:04;25.30;99.90
22635;DHT22;11484;50.858;4.384;2023-07-09T04:00:30;25.30;99.90
22635;DHT22;11484;50.858;4.384;2023-07-09T04:02:56;25.40;99.90
22635;DHT22;11484;50.858;4.384;2023-07-09T04:05:26;25.40;99.90
22635;DHT22;11484;50.858;4.384;2023-07-09T04:07:52;25.50;99.90
22635;DHT22;11484;50.858;4.384;2023-07-09T04:10:18;25.50;99.90
22635;DHT22;11484;50.858;4.384;2023-07-09T04:12:44;25.40;99.90
22635;DHT22;11484;50.858;4.384;2023-07-09T04:15:10;25.40;99.90
22635;DHT22;11484;50.858;4.384;2023-07-09T04:17:38;25.40;99.90
22635;DHT22;11484;50.858;4.384;2023-07-09T04:20:05;25.40;99.90
22635;DHT22;11484;50.858;4.384;2023-07-09T04:22:32;25.40;99.90
22635;DHT22;11484;50.858;4.384;2023-07-09T04:24:58;25.40;99.90
22635;DHT22;11484;50.858;4.384;2023-07-09T04:27:24;25.40;99.90
22635;DHT22;11484;50.858;4.384;2023-07-09T04:29:53;25.40;99.90
22635;DHT22;11484;50.858;4.384;2023-07-09T04:32:19;25.30;99.90
22635;DHT22;11484;50.858;4.384;2023-07-09T04:34:45;25.30;99.90
22635;DHT22;11484;50.858;4.384;2023-07-09T04:37:11;25.30;99.90
22635;DHT22;11484;50.858;4.384;2023-07-09T04:39:38;25.20;99.90
22635;DHT22;11484;50.858;4.384;2023-07-09T04:42:05;25.20;99.90
22635;DHT22;11484;50.858;4.384;2023-07-09T04:44:31;25.20;99.90
22635;DHT22;11484;50.858;4.384;2023-07-09T04:46:57;25.20;99.90
22635;DHT22;11484;50.858;4.384;2023-07-09T04:49:23;25.20;99.90
22635;DHT22;11484;50.858;4.384;2023-07-09T04:51:48;25.20;99.90
22635;DHT22;11484;50.858;4.384;2023-07-09T04:54:14;25.20;99.90
22635;DHT22;11484;50.858;4.384;2023-07-09T04:56:41;25.30;99.90
22635;DHT22;11484;50.858;4.384;2023-07-09T04:59:10;25.40;99.90
22635;DHT22;11484;50.858;4.384;2023-07-09T05:01:36;25.30;99.90
22635;DHT22;11484;50.858;4.384;2023-07-09T05:04:02;25.30;99.90
22635;DHT22;11484;50.858;4.384;2023-07-09T05:06:28;25.40;99.90
22635;DHT22;11484;50.858;4.384;2023-07-09T05:08:54;25.40;99.90
22635;DHT22;11484;50.858;4.384;2023-07-09T05:11:19;25.40;99.90
22635;DHT22;11484;50.858;4.384;2023-07-09T05:13:45;25.40;99.90
22635;DHT22;11484;50.858;4.384;2023-07-09T05:16:11;25.50;99.90
22635;DHT22;11484;50.858;4.384;2023-07-09T05:18:37;25.60;99.90
22635;DHT22;11484;50.858;4.384;2023-07-09T05:21:03;25.70;99.90
22635;DHT22;11484;50.858;4.384;2023-07-09T05:23:28;25.80;99.90
22635;DHT22;11484;50.858;4.384;2023-07-09T05:25:58;25.90;99.90
22635;DHT22;11484;50.858;4.384;2023-07-09T05:28:24;25.90;99.90
22635;DHT22;11484;50.858;4.384;2023-07-09T05:30:50;25.90;99.90
22635;DHT22;11484;50.858;4.384;2023-07-09T05:33:17;26.00;99.90
22635;DHT22;11484;50.858;4.384;2023-07-09T05:35:44;26.10;99.90
22635;DHT22;11484;50.858;4.384;2023-07-09T05:38:10;26.20;99.90
22635;DHT22;11484;50.858;4.384;2023-07-09T05:40:36;26.20;99.90
22635;DHT22;11484;50.858;4.384;2023-07-09T05:43:02;26.40;99.90
22635;DHT22;11484;50.858;4.384;2023-07-09T05:45:28;26.40;99.90
22635;DHT22;11484;50.858;4.384;2023-07-09T05:47:54;26.40;99.90
22635;DHT22;11484;50.858;4.384;2023-07-09T05:50:19;26.50;99.90
22635;DHT22;11484;50.858;4.384;2023-07-09T05:52:45;26.50;99.90
22635;DHT22;11484;50.858;4.384;2023-07-09T05:55:11;26.50;99.90
22635;DHT22;11484;50.858;4.384;2023-07-09T05:57:37;26.50;99.90
22635;DHT22;11484;50.858;4.384;2023-07-09T06:00:04;26.60;99.90
22635;DHT22;11484;50.858;4.384;2023-07-09T06:02:30;26.70;99.90
22635;DHT22;11484;50.858;4.384;2023-07-09T06:04:55;26.70;99.90
22635;DHT22;11484;50.858;4.384;2023-07-09T06:07:21;26.80;99.90
22635;DHT22;11484;50.858;4.384;2023-07-09T06:09:47;26.80;99.90
22635;DHT22;11484;50.858;4.384;2023-07-09T06:12:13;27.00;99.90
22635;DHT22;11484;50.858;4.384;2023-07-09T06:14:39;27.40;99.90
22635;DHT22;11484;50.858;4.384;2023-07-09T06:17:05;28.20;99.90
22635;DHT22;11484;50.858;4.384;2023-07-09T06:19:30;29.00;99.90
22635;DHT22;11484;50.858;4.384;2023-07-09T06:21:56;29.80;98.70
22635;DHT22;11484;50.858;4.384;2023-07-09T06:24:23;30.50;97.00
22635;DHT22;11484;50.858;4.384;2023-07-09T06:26:49;31.00;95.60
22635;DHT22;11484;50.858;4.384;2023-07-09T06:29:14;31.40;94.40
22635;DHT22;11484;50.858;4.384;2023-07-09T06:31:40;31.70;93.20
22635;DHT22;11484;50.858;4.384;2023-07-09T06:34:08;32.00;92.30
22635;DHT22;11484;50.858;4.384;2023-07-09T06:36:35;32.40;91.20
22635;DHT22;11484;50.858;4.384;2023-07-09T06:39:01;32.70;90.40
22635;DHT22;11484;50.858;4.384;2023-07-09T06:41:27;33.20;89.80
22635;DHT22;11484;50.858;4.384;2023-07-09T06:43:53;33.60;87.10
22635;DHT22;11484;50.858;4.384;2023-07-09T06:46:20;34.10;85.00
22635;DHT22;11484;50.858;4.384;2023-07-09T06:48:46;34.20;82.60
22635;DHT22;11484;50.858;4.384;2023-07-09T06:51:11;34.50;80.90
22635;DHT22;11484;50.858;4.384;2023-07-09T06:53:37;34.80;79.20
22635;DHT22;11484;50.858;4.384;2023-07-09T06:56:03;35.20;77.50
22635;DHT22;11484;50.858;4.384;2023-07-09T06:58:30;35.50;75.90
22635;DHT22;11484;50.858;4.384;2023-07-09T07:01:04;35.50;74.20
22635;DHT22;11484;50.858;4.384;2023-07-09T07:03:31;35.60;73.50
22635;DHT22;11484;50.858;4.384;2023-07-09T07:05:57;35.60;72.60
22635;DHT22;11484;50.858;4.384;2023-07-09T07:08:25;35.90;72.30
22635;DHT22;11484;50.858;4.384;2023-07-09T07:10:57;36.20;71.20
22635;DHT22;11484;50.858;4.384;2023-07-09T07:13:32;36.50;70.10
22635;DHT22;11484;50.858;4.384;2023-07-09T07:15:59;36.80;69.10
22635;DHT22;11484;50.858;4.384;2023-07-09T07:18:24;37.20;68.10
22635;DHT22;11484;50.858;4.384;2023-07-09T07:20:50;37.60;66.80
22635;DHT22;11484;50.858;4.384;2023-07-09T07:23:17;37.80;65.90
22635;DHT22;11484;50.858;4.384;2023-07-09T07:25:44;38.30;64.70
22635;DHT22;11484;50.858;4.384;2023-07-09T07:28:10;38.50;63.50
22635;DHT22;11484;50.858;4.384;2023-07-09T07:30:36;38.60;62.70
22635;DHT22;11484;50.858;4.384;2023-07-09T07:33:01;38.70;61.70
22635;DHT22;11484;50.858;4.384;2023-07-09T07:35:28;38.60;62.30
22635;DHT22;11484;50.858;4.384;2023-07-09T07:37:54;38.70;61.60
22635;DHT22;11484;50.858;4.384;2023-07-09T07:40:21;38.80;60.40
22635;DHT22;11484;50.858;4.384;2023-07-09T07:42:46;38.60;60.40
22635;DHT22;11484;50.858;4.384;2023-07-09T07:45:13;38.80;59.70
22635;DHT22;11484;50.858;4.384;2023-07-09T07:47:38;38.90;58.80
22635;DHT22;11484;50.858;4.384;2023-07-09T07:50:05;38.80;58.80
22635;DHT22;11484;50.858;4.384;2023-07-09T07:52:32;38.90;58.30
22635;DHT22;11484;50.858;4.384;2023-07-09T07:54:59;39.00;58.10
22635;DHT22;11484;50.858;4.384;2023-07-09T07:57:26;39.20;57.70
22635;DHT22;11484;50.858;4.384;2023-07-09T08:00:01;39.20;57.30
22635;DHT22;11484;50.858;4.384;2023-07-09T08:02:27;39.20;56.60
22635;DHT22;11484;50.858;4.384;2023-07-09T08:04:52;39.10;56.40
22635;DHT22;11484;50.858;4.384;2023-07-09T08:07:19;39.10;56.50
22635;DHT22;11484;50.858;4.384;2023-07-09T08:09:46;39.20;56.20
22635;DHT22;11484;50.858;4.384;2023-07-09T08:12:13;39.40;55.40
22635;DHT22;11484;50.858;4.384;2023-07-09T08:14:40;39.50;54.90
22635;DHT22;11484;50.858;4.384;2023-07-09T08:17:07;39.70;54.70
22635;DHT22;11484;50.858;4.384;2023-07-09T08:19:43;39.70;53.90
22635;DHT22;11484;50.858;4.384;2023-07-09T08:22:08;39.70;53.20
22635;DHT22;11484;50.858;4.384;2023-07-09T08:24:35;40.00;52.50
22635;DHT22;11484;50.858;4.384;2023-07-09T08:27:06;39.80;51.70
22635;DHT22;11484;50.858;4.384;2023-07-09T08:29:32;39.40;51.50
22635;DHT22;11484;50.858;4.384;2023-07-09T08:31:57;39.60;51.70
22635;DHT22;11484;50.858;4.384;2023-07-09T08:34:23;39.10;51.60
22635;DHT22;11484;50.858;4.384;2023-07-09T08:36:49;39.50;52.30
22635;DHT22;11484;50.858;4.384;2023-07-09T08:39:14;40.00;51.30
22635;DHT22;11484;50.858;4.384;2023-07-09T08:41:57;40.40;50.60
22635;DHT22;11484;50.858;4.384;2023-07-09T08:47:23;40.90;49.50
22635;DHT22;11484;50.858;4.384;2023-07-09T08:50:02;41.00;49.30
22635;DHT22;11484;50.858;4.384;2023-07-09T08:52:33;40.90;49.10
22635;DHT22;11484;50.858;4.384;2023-07-09T08:55:23;40.90;49.00
22635;DHT22;11484;50.858;4.384;2023-07-09T08:57:57;40.70;49.30
22635;DHT22;11484;50.858;4.384;2023-07-09T09:05:43;41.20;49.10
22635;DHT22;11484;50.858;4.384;2023-07-09T09:08:41;41.60;48.80
22635;DHT22;11484;50.858;4.384;2023-07-09T09:13:48;41.60;48.20
22635;DHT22;11484;50.858;4.384;2023-07-09T09:16:26;41.40;47.90
22635;DHT22;11484;50.858;4.384;2023-07-09T09:18:55;41.40;48.10
22635;DHT22;11484;50.858;4.384;2023-07-09T09:23:58;41.70;47.60
22635;DHT22;11484;50.858;4.384;2023-07-09T09:26:32;41.60;47.70
22635;DHT22;11484;50.858;4.384;2023-07-09T09:28:58;41.40;47.90
22635;DHT22;11484;50.858;4.384;2023-07-09T09:31:27;41.60;47.70
22635;DHT22;11484;50.858;4.384;2023-07-09T09:33:53;41.70;47.80
22635;DHT22;11484;50.858;4.384;2023-07-09T09:36:24;42.20;47.40
22635;DHT22;11484;50.858;4.384;2023-07-09T09:38:51;42.20;47.40
22635;DHT22;11484;50.858;4.384;2023-07-09T09:41:24;42.10;47.20
22635;DHT22;11484;50.858;4.384;2023-07-09T09:43:53;42.10;47.20
22635;DHT22;11484;50.858;4.384;2023-07-09T09:46:25;42.10;47.30
22635;DHT22;11484;50.858;4.384;2023-07-09T09:48:59;42.30;47.40
22635;DHT22;11484;50.858;4.384;2023-07-09T09:51:25;42.00;47.30
22635;DHT22;11484;50.858;4.384;2023-07-09T09:54:00;41.80;47.70
22635;DHT22;11484;50.858;4.384;2023-07-09T09:56:29;41.60;47.90
22635;DHT22;11484;50.858;4.384;2023-07-09T09:58:56;41.10;48.60
22635;DHT22;11484;50.858;4.384;2023-07-09T10:01:27;40.80;48.80
22635;DHT22;11484;50.858;4.384;2023-07-09T10:03:56;40.50;49.10
22635;DHT22;11484;50.858;4.384;2023-07-09T10:06:36;40.20;49.40
22635;DHT22;11484;50.858;4.384;2023-07-09T10:09:24;39.70;50.10
22635;DHT22;11484;50.858;4.384;2023-07-09T10:12:02;39.60;50.70
22635;DHT22;11484;50.858;4.384;2023-07-09T10:17:27;39.00;51.90
22635;DHT22;11484;50.858;4.384;2023-07-09T10:20:06;38.20;52.70
22635;DHT22;11484;50.858;4.384;2023-07-09T10:30:46;36.30;56.10
22635;DHT22;11484;50.858;4.384;2023-07-09T10:33:55;35.90;57.20
22635;DHT22;11484;50.858;4.384;2023-07-09T10:39:28;34.90;59.30
22635;DHT22;11484;50.858;4.384;2023-07-09T10:41:59;34.50;60.00
22635;DHT22;11484;50.858;4.384;2023-07-09T10:47:00;33.80;61.70
22635;DHT22;11484;50.858;4.384;2023-07-09T10:49:33;33.60;62.70
22635;DHT22;11484;50.858;4.384;2023-07-09T10:52:25;33.30;63.10
22635;DHT22;11484;50.858;4.384;2023-07-09T10:58:06;32.60;65.50
22635;DHT22;11484;50.858;4.384;2023-07-09T11:00:39;32.30;66.30
22635;DHT22;11484;50.858;4.384;2023-07-09T11:06:00;32.10;67.30
22635;DHT22;11484;50.858;4.384;2023-07-09T11:08:38;31.90;67.30
22635;DHT22;11484;50.858;4.384;2023-07-09T11:11:40;31.70;68.00
22635;DHT22;11484;50.858;4.384;2023-07-09T11:17:19;31.70;68.10
22635;DHT22;11484;50.858;4.384;2023-07-09T11:19:48;31.60;67.90
22635;DHT22;11484;50.858;4.384;2023-07-09T11:22:37;31.40;68.20
22635;DHT22;11484;50.858;4.384;2023-07-09T11:25:12;31.20;68.40
22635;DHT22;11484;50.858;4.384;2023-07-09T11:28:05;31.00;69.10
22635;DHT22;11484;50.858;4.384;2023-07-09T11:30:31;30.90;70.10
22635;DHT22;11484;50.858;4.384;2023-07-09T11:33:02;30.70;70.30
22635;DHT22;11484;50.858;4.384;2023-07-09T11:35:51;30.60;70.70
22635;DHT22;11484;50.858;4.384;2023-07-09T11:38:21;30.30;71.20
22635;DHT22;11484;50.858;4.384;2023-07-09T11:40:53;30.10;71.80
22635;DHT22;11484;50.858;4.384;2023-07-09T11:43:35;30.00;71.80
22635;DHT22;11484;50.858;4.384;2023-07-09T11:46:17;29.90;71.80
22635;DHT22;11484;50.858;4.384;2023-07-09T11:48:44;29.80;72.40
22635;DHT22;11484;50.858;4.384;2023-07-09T11:51:17;29.60;72.90
22635;DHT22;11484;50.858;4.384;2023-07-09T11:53:51;29.60;73.30
22635;DHT22;11484;50.858;4.384;2023-07-09T11:56:22;29.50;73.80
22635;DHT22;11484;50.858;4.384;2023-07-09T11:58:57;29.40;74.20
22635;DHT22;11484;50.858;4.384;2023-07-09T12:01:34;29.30;74.10
22635;DHT22;11484;50.858;4.384;2023-07-09T12:04:01;29.30;74.30
22635;DHT22;11484;50.858;4.384;2023-07-09T12:06:28;29.20;74.80
22635;DHT22;11484;50.858;4.384;2023-07-09T12:08:56;29.20;75.90
22635;DHT22;11484;50.858;4.384;2023-07-09T12:11:25;29.00;75.90
22635;DHT22;11484;50.858;4.384;2023-07-09T12:13:52;29.00;76.60
22635;DHT22;11484;50.858;4.384;2023-07-09T12:16:38;29.00;76.90
22635;DHT22;11484;50.858;4.384;2023-07-09T12:19:04;28.90;77.30
22635;DHT22;11484;50.858;4.384;2023-07-09T12:21:37;28.90;78.10
22635;DHT22;11484;50.858;4.384;2023-07-09T12:24:20;28.80;80.10
22635;DHT22;11484;50.858;4.384;2023-07-09T12:26:52;28.70;81.60
22635;DHT22;11484;50.858;4.384;2023-07-09T12:29:18;28.60;83.50
22635;DHT22;11484;50.858;4.384;2023-07-09T12:31:43;28.50;82.80
22635;DHT22;11484;50.858;4.384;2023-07-09T12:34:13;28.30;86.30
22635;DHT22;11484;50.858;4.384;2023-07-09T12:36:45;28.10;90.90
22635;DHT22;11484;50.858;4.384;2023-07-09T12:39:12;27.90;91.30
22635;DHT22;11484;50.858;4.384;2023-07-09T12:41:44;27.70;94.50
22635;DHT22;11484;50.858;4.384;2023-07-09T12:44:18;27.60;97.10
22635;DHT22;11484;50.858;4.384;2023-07-09T12:46:46;27.50;99.90
22635;DHT22;11484;50.858;4.384;2023-07-09T12:49:36;27.40;99.90
22635;DHT22;11484;50.858;4.384;2023-07-09T12:52:08;27.20;99.90
22635;DHT22;11484;50.858;4.384;2023-07-09T12:54:34;26.80;99.90
22635;DHT22;11484;50.858;4.384;2023-07-09T12:57:00;26.60;99.90
22635;DHT22;11484;50.858;4.384;2023-07-09T12:59:40;26.60;99.90
22635;DHT22;11484;50.858;4.384;2023-07-09T13:02:26;26.40;99.90
22635;DHT22;11484;50.858;4.384;2023-07-09T13:05:05;26.20;99.90
22635;DHT22;11484;50.858;4.384;2023-07-09T13:07:33;26.30;99.90
22635;DHT22;11484;50.858;4.384;2023-07-09T13:10:06;26.40;99.90
22635;DHT22;11484;50.858;4.384;2023-07-09T13:12:33;26.40;99.90
22635;DHT22;11484;50.858;4.384;2023-07-09T13:15:47;26.60;99.90
22635;DHT22;11484;50.858;4.384;2023-07-09T13:17:48;26.70;99.90
22635;DHT22;11484;50.858;4.384;2023-07-09T13:20:14;26.80;99.90
22635;DHT22;11484;50.858;4.384;2023-07-09T13:22:40;26.80;99.90
22635;DHT22;11484;50.858;4.384;2023-07-09T13:25:08;26.90;99.90
22635;DHT22;11484;50.858;4.384;2023-07-09T13:27:35;27.10;99.90
22635;DHT22;11484;50.858;4.384;2023-07-09T13:30:02;27.10;99.90
22635;DHT22;11484;50.858;4.384;2023-07-09T13:32:28;27.10;99.90
22635;DHT22;11484;50.858;4.384;2023-07-09T13:34:55;27.20;99.90
22635;DHT22;11484;50.858;4.384;2023-07-09T13:37:20;27.10;99.90
22635;DHT22;11484;50.858;4.384;2023-07-09T13:39:46;27.10;99.90
22635;DHT22;11484;50.858;4.384;2023-07-09T13:42:14;27.00;99.90
22635;DHT22;11484;50.858;4.384;2023-07-09T13:44:42;27.00;99.90
22635;DHT22;11484;50.858;4.384;2023-07-09T13:47:12;26.90;99.90
22635;DHT22;11484;50.858;4.384;2023-07-09T14:08:08;27.30;99.90
22635;DHT22;11484;50.858;4.384;2023-07-09T14:10:34;27.20;99.90
22635;DHT22;11484;50.858;4.384;2023-07-09T14:13:01;27.30;99.90
22635;DHT22;11484;50.858;4.384;2023-07-09T14:15:28;27.40;99.90
22635;DHT22;11484;50.858;4.384;2023-07-09T14:17:54;27.60;99.90
22635;DHT22;11484;50.858;4.384;2023-07-09T14:20:24;27.80;99.90
22635;DHT22;11484;50.858;4.384;2023-07-09T14:22:50;27.70;99.90
22635;DHT22;11484;50.858;4.384;2023-07-09T14:25:23;27.90;99.90
22635;DHT22;11484;50.858;4.384;2023-07-09T14:27:53;27.90;99.90
22635;DHT22;11484;50.858;4.384;2023-07-09T14:30:24;27.90;99.90
22635;DHT22;11484;50.858;4.384;2023-07-09T14:32:54;27.90;99.90
22635;DHT22;11484;50.858;4.384;2023-07-09T14:35:27;27.80;99.90
22635;DHT22;11484;50.858;4.384;2023-07-09T14:37:55;27.70;99.90
22635;DHT22;11484;50.858;4.384;2023-07-09T14:40:22;27.30;99.90
22635;DHT22;11484;50.858;4.384;2023-07-09T14:42:49;27.20;99.90
22635;DHT22;11484;50.858;4.384;2023-07-09T14:45:18;27.10;99.90
22635;DHT22;11484;50.858;4.384;2023-07-09T14:47:45;27.00;99.90
22635;DHT22;11484;50.858;4.384;2023-07-09T14:50:11;27.00;99.90
22635;DHT22;11484;50.858;4.384;2023-07-09T14:52:37;27.10;99.90
22635;DHT22;11484;50.858;4.384;2023-07-09T14:55:04;27.00;99.90
22635;DHT22;11484;50.858;4.384;2023-07-09T14:57:30;27.10;99.90
22635;DHT22;11484;50.858;4.384;2023-07-09T14:59:57;27.10;99.90
22635;DHT22;11484;50.858;4.384;2023-07-09T15:02:34;27.10;99.90
22635;DHT22;11484;50.858;4.384;2023-07-09T15:05:04;27.20;99.90
22635;DHT22;11484;50.858;4.384;2023-07-09T15:07:31;27.10;99.90
22635;DHT22;11484;50.858;4.384;2023-07-09T15:10:01;27.10;99.90
22635;DHT22;11484;50.858;4.384;2023-07-09T15:12:34;27.20;99.90
22635;DHT22;11484;50.858;4.384;2023-07-09T15:15:13;27.20;99.90
22635;DHT22;11484;50.858;4.384;2023-07-09T15:17:42;27.30;99.90
22635;DHT22;11484;50.858;4.384;2023-07-09T15:20:16;27.20;99.90
22635;DHT22;11484;50.858;4.384;2023-07-09T15:22:43;27.30;99.90
22635;DHT22;11484;50.858;4.384;2023-07-09T15:25:21;27.30;99.90
22635;DHT22;11484;50.858;4.384;2023-07-09T15:27:47;27.60;99.90
22635;DHT22;11484;50.858;4.384;2023-07-09T15:30:18;27.70;99.90
22635;DHT22;11484;50.858;4.384;2023-07-09T15:32:48;27.60;99.90
22635;DHT22;11484;50.858;4.384;2023-07-09T15:35:16;27.70;99.90
22635;DHT22;11484;50.858;4.384;2023-07-09T15:37:42;27.60;99.90
22635;DHT22;11484;50.858;4.384;2023-07-09T15:40:23;27.60;99.90
22635;DHT22;11484;50.858;4.384;2023-07-09T15:42:52;27.60;99.90
22635;DHT22;11484;50.858;4.384;2023-07-09T15:45:20;27.60;99.90
22635;DHT22;11484;50.858;4.384;2023-07-09T15:47:47;27.70;99.90
22635;DHT22;11484;50.858;4.384;2023-07-09T15:52:41;28.00;99.90
22635;DHT22;11484;50.858;4.384;2023-07-09T15:55:17;28.00;99.90
22635;DHT22;11484;50.858;4.384;2023-07-09T15:57:46;27.90;99.90
22635;DHT22;11484;50.858;4.384;2023-07-09T16:00:27;28.00;99.90
22635;DHT22;11484;50.858;4.384;2023-07-09T16:02:54;28.00;99.90
22635;DHT22;11484;50.858;4.384;2023-07-09T16:05:29;28.10;99.90
22635;DHT22;11484;50.858;4.384;2023-07-09T16:07:57;28.20;99.90
22635;DHT22;11484;50.858;4.384;2023-07-09T16:10:24;28.20;99.90
22635;DHT22;11484;50.858;4.384;2023-07-09T16:12:51;28.30;99.90
22635;DHT22;11484;50.858;4.384;2023-07-09T16:15:22;28.20;99.90
22635;DHT22;11484;50.858;4.384;2023-07-09T16:17:49;28.00;99.90
22635;DHT22;11484;50.858;4.384;2023-07-09T16:20:18;27.90;99.90
22635;DHT22;11484;50.858;4.384;2023-07-09T16:22:46;27.80;99.90
22635;DHT22;11484;50.858;4.384;2023-07-09T16:25:28;27.70;99.90
22635;DHT22;11484;50.858;4.384;2023-07-09T16:27:54;27.50;99.90
22635;DHT22;11484;50.858;4.384;2023-07-09T16:30:25;27.40;99.90
22635;DHT22;11484;50.858;4.384;2023-07-09T16:32:51;27.50;99.90
22635;DHT22;11484;50.858;4.384;2023-07-09T16:35:20;27.50;99.90
22635;DHT22;11484;50.858;4.384;2023-07-09T16:37:48;27.50;99.90
22635;DHT22;11484;50.858;4.384;2023-07-09T16:40:23;27.50;99.90
22635;DHT22;11484;50.858;4.384;2023-07-09T16:42:50;27.50;99.90
22635;DHT22;11484;50.858;4.384;2023-07-09T16:45:18;27.40;99.90
22635;DHT22;11484;50.858;4.384;2023-07-09T16:47:46;27.30;99.90
22635;DHT22;11484;50.858;4.384;2023-07-09T16:50:30;27.20;99.90